createdAt,value
2022-12-27T00:01:20.136Z,5.95
2022-12-27T00:04:21.650Z,3.40
2022-12-27T00:07:22.991Z,5.55
2022-12-27T00:10:24.413Z,13.80
2022-12-27T00:13:25.765Z,7.97
2022-12-27T00:16:29.326Z,7.05
2022-12-27T00:19:30.830Z,6.37
2022-12-27T00:22:32.169Z,12.70
2022-12-27T00:25:34.208Z,7.05
2022-12-27T00:28:35.827Z,10.75
2022-12-27T00:31:37.968Z,13.52
2022-12-27T00:34:39.518Z,5.47
2022-12-27T00:37:41.409Z,10.93
2022-12-27T00:40:42.971Z,8.35
2022-12-27T00:43:45.012Z,5.85
2022-12-27T00:46:46.352Z,4.50
2022-12-27T00:49:47.680Z,9.05
2022-12-27T00:52:49.356Z,10.20
2022-12-27T00:55:52.132Z,9.88
2022-12-27T00:59:04.506Z,7.78
2022-12-27T01:02:05.892Z,6.85
2022-12-27T01:05:08.392Z,6.95
2022-12-27T01:08:10.016Z,9.93
2022-12-27T01:11:12.312Z,9.73
2022-12-27T01:14:13.857Z,10.48
2022-12-27T01:17:15.237Z,9.30
2022-12-27T01:20:17.250Z,6.50
2022-12-27T01:23:18.616Z,9.18
2022-12-27T01:26:22.149Z,6.40
2022-12-27T01:29:23.514Z,8.38
2022-12-27T01:32:24.961Z,6.45
2022-12-27T01:35:26.333Z,7.60
2022-12-27T01:38:27.686Z,5.40
2022-12-27T01:41:49.508Z,10.43
2022-12-27T01:44:57.972Z,5.88
2022-12-27T01:48:34.654Z,9.07
2022-12-27T01:51:36.049Z,9.77
2022-12-27T01:54:37.859Z,7.95
2022-12-27T01:57:39.991Z,5.82
2022-12-27T02:00:44.460Z,5.22
2022-12-27T02:03:53.472Z,6.85
2022-12-27T02:06:55.029Z,7.05
2022-12-27T02:09:58.971Z,6.00
2022-12-27T02:13:01.071Z,6.50
2022-12-27T02:16:13.675Z,5.93
2022-12-27T02:19:33.137Z,7.40
2022-12-27T02:22:52.749Z,5.72
2022-12-27T02:26:15.915Z,8.00
2022-12-27T02:29:55.575Z,7.20
2022-12-27T02:33:04.500Z,6.85
2022-12-27T02:36:11.958Z,10.52
2022-12-27T02:39:15.049Z,13.30
2022-12-27T02:42:18.387Z,9.25
2022-12-27T02:48:25.865Z,4.35
2022-12-27T02:52:03.150Z,7.25
2022-12-27T02:55:24.533Z,3.83
2022-12-27T02:58:48.808Z,5.82
2022-12-27T03:02:11.850Z,4.70
2022-12-27T03:05:51.565Z,7.38
2022-12-27T03:08:57.805Z,5.00
2022-12-27T03:11:59.262Z,7.38
2022-12-27T03:15:08.536Z,9.45
2022-12-27T03:18:16.740Z,11.65
2022-12-27T03:21:25.747Z,8.93
2022-12-27T03:24:32.887Z,5.18
2022-12-27T03:27:36.798Z,7.85
2022-12-27T03:30:40.152Z,6.70
2022-12-27T03:36:44.022Z,7.38
2022-12-27T03:39:54.441Z,6.97
2022-12-27T03:43:04.981Z,10.70
2022-12-27T03:46:17.287Z,9.73
2022-12-27T03:49:38.788Z,10.82
2022-12-27T03:52:48.464Z,6.25
2022-12-27T03:55:50.227Z,5.15
2022-12-27T03:58:52.823Z,9.77
2022-12-27T04:01:54.595Z,6.77
2022-12-27T04:04:56.089Z,7.47
2022-12-27T04:07:57.450Z,8.05
2022-12-27T04:10:58.874Z,7.70
2022-12-27T04:14:00.244Z,6.78
2022-12-27T04:17:01.651Z,10.10
2022-12-27T04:20:03.128Z,7.13
2022-12-27T04:23:05.028Z,5.30
2022-12-27T04:26:06.490Z,8.85
2022-12-27T04:29:07.975Z,11.82
2022-12-27T04:32:09.311Z,9.48
2022-12-27T04:35:10.717Z,7.43
2022-12-27T04:38:12.068Z,6.60
2022-12-27T04:41:13.464Z,8.35
2022-12-27T04:44:14.808Z,6.57
2022-12-27T04:47:19.358Z,7.38
2022-12-27T04:50:30.488Z,8.48
2022-12-27T04:53:32.417Z,7.07
2022-12-27T04:56:33.809Z,5.93
2022-12-27T04:59:35.136Z,6.43
2022-12-27T05:02:37.050Z,5.03
2022-12-27T05:05:39.347Z,9.02
2022-12-27T05:08:41.462Z,7.15
2022-12-27T05:11:42.827Z,3.92
2022-12-27T05:14:44.192Z,6.57
2022-12-27T05:17:45.540Z,8.02
2022-12-27T05:20:46.917Z,5.63
2022-12-27T05:23:48.267Z,7.53
2022-12-27T05:26:49.661Z,6.00
2022-12-27T05:29:50.991Z,6.88
2022-12-27T05:32:56.095Z,6.40
2022-12-27T05:35:58.709Z,7.40
2022-12-27T05:39:00.102Z,7.13
2022-12-27T05:42:01.748Z,5.88
2022-12-27T05:45:03.684Z,5.57
2022-12-27T05:48:05.345Z,10.13
2022-12-27T05:51:15.850Z,7.70
2022-12-27T05:54:17.238Z,4.80
2022-12-27T05:57:18.609Z,5.35
2022-12-27T06:00:19.949Z,4.78
2022-12-27T06:03:22.150Z,6.82
2022-12-27T06:06:23.773Z,7.27
2022-12-27T06:09:26.180Z,5.68
2022-12-27T06:12:27.571Z,10.52
2022-12-27T06:15:29.248Z,8.88
2022-12-27T06:18:32.624Z,8.63
2022-12-27T06:24:35.297Z,6.90
2022-12-27T06:27:36.799Z,6.53
2022-12-27T06:30:38.151Z,7.60
2022-12-27T06:33:39.547Z,7.72
2022-12-27T06:36:40.923Z,13.02
2022-12-27T06:39:42.299Z,7.13
2022-12-27T06:42:43.744Z,7.63
2022-12-27T06:45:45.209Z,8.57
2022-12-27T06:48:47.205Z,11.55
2022-12-27T06:51:52.619Z,8.52
2022-12-27T06:54:57.342Z,4.93
2022-12-27T06:57:58.757Z,11.30
2022-12-27T07:01:09.718Z,6.75
2022-12-27T07:04:12.030Z,9.88
2022-12-27T07:07:16.064Z,4.65
2022-12-27T07:10:17.707Z,7.13
2022-12-27T07:13:19.058Z,8.40
2022-12-27T07:16:23.655Z,7.60
2022-12-27T07:19:25.038Z,7.90
2022-12-27T07:22:27.443Z,7.35
2022-12-27T07:25:29.060Z,8.73
2022-12-27T07:28:30.955Z,9.05
2022-12-27T07:31:32.812Z,5.68
2022-12-27T07:34:34.198Z,8.50
2022-12-27T07:37:35.580Z,6.95
2022-12-27T07:40:37.858Z,6.45
2022-12-27T07:43:40.340Z,4.25
2022-12-27T07:46:43.522Z,7.63
2022-12-27T07:49:44.936Z,4.00
2022-12-27T07:52:46.328Z,3.70
2022-12-27T07:55:48.043Z,6.15
2022-12-27T07:58:50.579Z,3.90
2022-12-27T08:01:51.997Z,8.87
2022-12-27T08:04:53.378Z,6.25
2022-12-27T08:07:54.800Z,6.90
2022-12-27T08:11:00.562Z,7.47
2022-12-27T08:14:05.073Z,5.80
2022-12-27T08:17:25.749Z,6.68
2022-12-27T08:20:27.079Z,5.13
2022-12-27T08:23:28.460Z,7.45
2022-12-27T08:26:29.856Z,5.28
2022-12-27T08:29:31.376Z,5.72
2022-12-27T08:32:32.727Z,6.07
2022-12-27T08:35:52.763Z,5.60
2022-12-27T08:38:55.517Z,7.05
2022-12-27T08:41:56.905Z,7.43
2022-12-27T08:44:58.233Z,8.48
2022-12-27T08:48:00.763Z,4.78
2022-12-27T08:51:12.318Z,8.17
2022-12-27T08:54:14.146Z,5.72
2022-12-27T08:57:15.524Z,10.43
2022-12-27T09:00:17.269Z,7.63
2022-12-27T09:03:20.013Z,6.88
2022-12-27T09:06:23.539Z,6.55
2022-12-27T09:09:24.904Z,10.23
2022-12-27T09:12:26.261Z,8.43
2022-12-27T09:15:27.657Z,9.65
2022-12-27T09:18:29.047Z,5.88
2022-12-27T09:21:32.340Z,6.95
2022-12-27T09:24:33.692Z,10.65
2022-12-27T09:27:38.281Z,10.52
2022-12-27T09:30:39.628Z,6.65
2022-12-27T09:33:41.745Z,7.78
2022-12-27T09:36:43.129Z,8.70
2022-12-27T09:39:44.491Z,7.03
2022-12-27T09:43:11.844Z,6.95
2022-12-27T09:46:27.712Z,12.98
2022-12-27T09:49:47.301Z,9.73
2022-12-27T09:52:59.235Z,6.85
2022-12-27T09:56:00.687Z,9.20
2022-12-27T09:59:37.245Z,7.82
2022-12-27T10:02:38.704Z,11.50
2022-12-27T10:05:45.792Z,9.13
2022-12-27T10:09:00.326Z,4.95
2022-12-27T10:12:20.113Z,8.43
2022-12-27T10:15:40.198Z,6.05
2022-12-27T10:19:01.101Z,6.95
2022-12-27T10:22:33.636Z,7.07
2022-12-27T10:25:37.417Z,4.45
2022-12-27T10:28:42.844Z,4.38
2022-12-27T10:31:44.900Z,4.32
2022-12-27T10:34:58.625Z,5.63
2022-12-27T10:41:29.819Z,5.97
2022-12-27T10:44:31.215Z,11.00
2022-12-27T10:47:32.650Z,8.98
2022-12-27T10:50:34.069Z,6.13
2022-12-27T10:53:55.651Z,5.97
2022-12-27T10:57:16.528Z,5.05
2022-12-27T11:00:22.996Z,7.40
2022-12-27T11:03:24.391Z,5.75
2022-12-27T11:06:25.887Z,9.30
2022-12-27T11:09:30.215Z,5.53
2022-12-27T11:12:31.594Z,5.72
2022-12-27T11:15:36.464Z,4.35
2022-12-27T11:18:45.787Z,9.95
2022-12-27T11:21:47.216Z,7.03
2022-12-27T11:24:51.274Z,7.95
2022-12-27T11:27:57.751Z,6.22
2022-12-27T11:31:02.691Z,7.90
2022-12-27T11:34:15.323Z,10.52
2022-12-27T11:37:20.019Z,6.13
2022-12-27T11:40:29.642Z,5.40
2022-12-27T11:43:38.507Z,8.63
2022-12-27T11:47:01.541Z,6.72
2022-12-27T11:50:24.937Z,9.20
2022-12-27T11:53:50.940Z,8.45
2022-12-27T11:57:06.369Z,6.68
2022-12-27T12:00:21.862Z,4.47
2022-12-27T12:03:35.448Z,7.82
2022-12-27T12:07:11.465Z,6.97
2022-12-27T12:10:45.180Z,9.57
2022-12-27T12:13:58.777Z,9.50
2022-12-27T12:20:30.865Z,6.35
2022-12-27T12:23:50.329Z,7.50
2022-12-27T12:27:10.639Z,8.60
2022-12-27T12:31:03.384Z,11.88
2022-12-27T12:34:47.765Z,6.93
2022-12-27T12:38:09.353Z,7.78
2022-12-27T12:41:37.325Z,9.88
2022-12-27T12:45:14.806Z,12.70
2022-12-27T12:48:27.964Z,10.00
2022-12-27T12:51:44.121Z,5.93
2022-12-27T12:54:57.307Z,7.97
2022-12-27T12:58:05.604Z,8.85
2022-12-27T13:01:25.804Z,7.03
2022-12-27T13:04:27.318Z,9.73
2022-12-27T13:07:49.738Z,6.80
2022-12-27T13:11:12.795Z,8.45
2022-12-27T13:14:42.154Z,10.70
2022-12-27T13:18:17.380Z,8.35
2022-12-27T13:21:34.191Z,6.63
2022-12-27T13:24:54.815Z,16.33
2022-12-27T13:28:33.809Z,6.13
2022-12-27T13:31:51.731Z,9.43
2022-12-27T13:35:19.750Z,9.90
2022-12-27T13:38:35.563Z,10.38
2022-12-27T13:41:58.010Z,11.32
2022-12-27T13:45:05.535Z,9.35
2022-12-27T13:48:26.242Z,6.68
2022-12-27T13:51:47.678Z,11.73
2022-12-27T13:55:01.324Z,9.52
2022-12-27T14:01:45.774Z,7.63
2022-12-27T14:05:02.178Z,12.85
2022-12-27T14:08:07.197Z,9.07
2022-12-27T14:11:21.786Z,8.07
2022-12-27T14:14:25.536Z,10.57
2022-12-27T14:17:50.605Z,11.60
2022-12-27T14:21:22.472Z,13.68
2022-12-27T14:24:32.824Z,15.57
2022-12-27T14:28:03.519Z,12.00
2022-12-27T14:31:10.967Z,9.15
2022-12-27T14:34:57.394Z,9.80
2022-12-27T14:38:31.571Z,5.20
2022-12-27T14:42:14.474Z,9.80
2022-12-27T14:45:58.193Z,9.40
2022-12-27T14:49:37.038Z,8.27
2022-12-27T14:52:46.877Z,8.05
2022-12-27T14:55:57.417Z,10.43
2022-12-27T14:59:10.694Z,10.68
2022-12-27T15:02:43.880Z,15.73
2022-12-27T15:06:00.546Z,16.00
2022-12-27T15:09:27.517Z,15.88
2022-12-27T15:12:38.057Z,9.75
2022-12-27T15:16:15.031Z,13.10
2022-12-27T15:19:47.840Z,7.22
2022-12-27T15:23:11.990Z,7.47
2022-12-27T15:26:22.786Z,8.05
2022-12-27T15:29:36.080Z,8.48
2022-12-27T15:32:53.635Z,21.15
2022-12-27T15:36:27.139Z,11.05
2022-12-27T15:39:34.619Z,9.02
2022-12-27T15:43:17.759Z,11.75
2022-12-27T15:46:43.695Z,7.95
2022-12-27T15:50:17.587Z,11.55
2022-12-27T15:53:36.831Z,12.07
2022-12-27T15:56:59.947Z,6.50
2022-12-27T16:00:16.830Z,9.40
2022-12-27T16:03:37.709Z,14.48
2022-12-27T16:06:50.159Z,15.05
2022-12-27T16:09:51.896Z,9.52
2022-12-27T16:12:55.540Z,10.15
2022-12-27T16:15:57.784Z,15.48
2022-12-27T16:19:40.405Z,8.45
2022-12-27T16:22:51.464Z,15.23
2022-12-27T16:26:05.417Z,11.65
2022-12-27T16:29:16.641Z,13.88
2022-12-27T16:32:21.830Z,11.38
2022-12-27T16:35:23.497Z,9.63
2022-12-27T16:38:33.119Z,7.20
2022-12-27T16:41:49.772Z,11.05
2022-12-27T16:44:54.013Z,15.45
2022-12-27T16:48:01.585Z,11.95
2022-12-27T16:51:08.647Z,12.75
2022-12-27T16:54:31.075Z,14.20
2022-12-27T16:57:44.038Z,14.07
2022-12-27T17:00:53.630Z,10.88
2022-12-27T17:03:58.788Z,10.45
2022-12-27T17:07:00.213Z,15.98
2022-12-27T17:10:32.161Z,9.55
2022-12-27T17:13:43.955Z,12.93
2022-12-27T17:16:53.333Z,14.48
2022-12-27T17:20:02.443Z,15.50
2022-12-27T17:23:04.867Z,11.13
2022-12-27T17:26:44.344Z,13.98
2022-12-27T17:30:25.243Z,11.90
2022-12-27T17:33:53.044Z,14.85
2022-12-27T17:37:23.817Z,19.15
2022-12-27T17:40:43.148Z,14.63
2022-12-27T17:43:52.995Z,16.42
2022-12-27T17:47:01.948Z,12.10
2022-12-27T17:50:14.207Z,16.45
2022-12-27T17:53:18.406Z,10.77
2022-12-27T17:56:21.969Z,16.90
2022-12-27T17:59:25.203Z,14.75
2022-12-27T18:02:33.620Z,21.92
2022-12-27T18:05:41.529Z,16.52
2022-12-27T18:08:42.909Z,14.57
2022-12-27T18:11:44.320Z,16.70
2022-12-27T18:14:55.556Z,15.00
2022-12-27T18:18:08.233Z,15.00
2022-12-27T18:21:21.179Z,12.83
2022-12-27T18:24:32.258Z,19.58
2022-12-27T18:27:33.615Z,15.63
2022-12-27T18:30:47.860Z,16.15
2022-12-27T18:33:58.527Z,22.42
2022-12-27T18:37:06.309Z,16.50
2022-12-27T18:40:20.103Z,14.40
2022-12-27T18:43:21.534Z,16.92
2022-12-27T18:46:32.962Z,16.02
2022-12-27T18:49:36.618Z,20.63
2022-12-27T18:52:40.409Z,20.17
2022-12-27T18:55:59.400Z,14.80
2022-12-27T18:59:16.185Z,14.63
2022-12-27T19:02:36.775Z,17.45
2022-12-27T19:05:38.610Z,18.00
2022-12-27T19:08:46.158Z,17.60
2022-12-27T19:11:53.232Z,14.48
2022-12-27T19:14:54.859Z,15.98
2022-12-27T19:18:02.146Z,18.50
2022-12-27T19:21:05.739Z,14.55
2022-12-27T19:24:20.553Z,16.75
2022-12-27T19:27:23.717Z,19.85
2022-12-27T19:30:47.580Z,16.20
2022-12-27T19:36:55.146Z,19.40
2022-12-27T19:39:57.483Z,16.30
2022-12-27T19:42:58.869Z,22.92
2022-12-27T19:46:00.246Z,18.45
2022-12-27T19:52:25.802Z,19.70
2022-12-27T19:55:27.516Z,15.63
2022-12-27T19:58:30.602Z,16.83
2022-12-27T20:01:32.131Z,22.20
2022-12-27T20:04:33.609Z,17.40
2022-12-27T20:07:35.387Z,25.48
2022-12-27T20:10:36.745Z,20.88
2022-12-27T20:13:38.077Z,19.73
2022-12-27T20:16:41.064Z,22.17
2022-12-27T20:19:42.485Z,20.42
2022-12-27T20:22:43.817Z,16.88
2022-12-27T20:25:47.287Z,16.67
2022-12-27T20:28:49.673Z,19.17
2022-12-27T20:31:51.089Z,20.48
2022-12-27T20:34:52.462Z,14.18
2022-12-27T20:37:53.843Z,18.20
2022-12-27T20:40:55.220Z,19.08
2022-12-27T20:43:57.615Z,19.38
2022-12-27T20:46:59.159Z,14.70
2022-12-27T20:50:00.535Z,24.67
2022-12-27T20:53:01.966Z,21.42
2022-12-27T20:56:06.559Z,22.67
2022-12-27T20:59:07.915Z,22.08
2022-12-27T21:02:12.646Z,21.95
2022-12-27T21:05:14.704Z,20.52
2022-12-27T21:08:16.041Z,18.10
2022-12-27T21:11:22.919Z,20.65
2022-12-27T21:14:24.265Z,21.13
2022-12-27T21:17:25.630Z,21.30
2022-12-27T21:20:27.033Z,18.38
2022-12-27T21:23:31.543Z,22.58
2022-12-27T21:26:36.138Z,22.17
2022-12-27T21:29:37.487Z,27.60
2022-12-27T21:32:38.842Z,21.70
2022-12-27T21:35:40.190Z,20.02
2022-12-27T21:38:42.535Z,18.00
2022-12-27T21:41:43.928Z,25.10
2022-12-27T21:44:45.292Z,19.67
2022-12-27T21:47:46.687Z,17.95
2022-12-27T21:50:48.153Z,23.10
2022-12-27T21:53:50.274Z,26.80
2022-12-27T21:56:51.634Z,20.85
2022-12-27T21:59:52.959Z,21.65
2022-12-27T22:02:54.472Z,22.08
2022-12-27T22:05:56.064Z,18.85
2022-12-27T22:08:59.992Z,23.05
2022-12-27T22:12:01.349Z,22.63
2022-12-27T22:15:02.936Z,22.02
2022-12-27T22:18:04.480Z,23.33
2022-12-27T22:21:07.967Z,18.67
2022-12-27T22:24:12.840Z,22.20
2022-12-27T22:27:14.177Z,20.80
2022-12-27T22:30:15.556Z,16.92
2022-12-27T22:33:16.925Z,20.20
2022-12-27T22:36:24.058Z,19.25
2022-12-27T22:39:25.397Z,20.35
2022-12-27T22:42:26.762Z,20.38
2022-12-27T22:45:28.193Z,17.60
2022-12-27T22:48:29.579Z,20.38
2022-12-27T22:51:35.652Z,18.23
2022-12-27T22:55:04.140Z,16.98
2022-12-27T22:57:58.371Z,12.93
2022-12-27T23:00:59.743Z,18.08
2022-12-27T23:04:03.369Z,12.65
2022-12-27T23:07:04.750Z,12.52
2022-12-27T23:10:06.641Z,14.38
2022-12-27T23:13:07.991Z,14.27
2022-12-27T23:16:09.651Z,13.93
2022-12-27T23:19:16.912Z,13.18
2022-12-27T23:22:18.253Z,8.60
2022-12-27T23:25:19.601Z,9.45
2022-12-27T23:28:21.038Z,19.33
2022-12-27T23:31:25.342Z,10.48
2022-12-27T23:34:28.651Z,11.95
2022-12-27T23:37:30.609Z,12.65
2022-12-27T23:40:31.990Z,12.10
2022-12-27T23:43:53.969Z,7.50
2022-12-27T23:46:56.200Z,10.18
2022-12-27T23:49:57.583Z,8.00
2022-12-27T23:52:58.937Z,9.85
2022-12-27T23:56:17.239Z,9.23
2022-12-27T23:59:18.640Z,8.32
